Time;durP1;ratioP1;P1;durP2;ratioP2;P2;SDS_P1;SDS_P2;PMS_P1;PMS_P2;Temp;Humidity;BMP_temperature;BMP_pressure;BME280_temperature;BME280_humidity;BME280_pressure;Samples;Min_cycle;Max_cycle;Signal;HPM_P1;HPM_P2
2024/01/21 00:01:54;;;;;;;11.65;5.25;;;1.00;99.90;;;;;;5050155;28;20089;-89
2024/01/21 00:04:21;;;;;;;11.35;4.43;;;1.00;99.90;;;;;;5014975;28;20041;-89
2024/01/21 00:06:46;;;;;;;9.40;4.03;;;1.00;99.90;;;;;;5015512;28;20033;-89
2024/01/21 00:09:12;;;;;;;11.60;4.18;;;1.00;99.90;;;;;;5015061;28;20039;-89
2024/01/21 00:11:38;;;;;;;9.43;3.25;;;1.00;99.90;;;;;;5032111;28;20044;-89
2024/01/21 00:14:03;;;;;;;12.30;4.53;;;1.00;99.90;;;;;;5049692;28;20040;-88
2024/01/21 00:16:29;;;;;;;10.57;3.97;;;1.00;99.90;;;;;;5031631;28;20045;-89
2024/01/21 00:18:54;;;;;;;9.60;4.00;;;1.00;99.90;;;;;;5031446;28;20047;-89
2024/01/21 00:21:20;;;;;;;11.32;4.60;;;1.00;99.90;;;;;;5015441;28;20116;-89
2024/01/21 00:23:46;;;;;;;13.35;5.00;;;1.00;99.90;;;;;;5015464;28;20436;-89
2024/01/21 00:26:12;;;;;;;9.77;4.00;;;1.00;99.90;;;;;;5016202;28;20118;-89
2024/01/21 00:28:38;;;;;;;11.70;4.30;;;1.00;99.90;;;;;;5015761;28;20457;-89
2024/01/21 00:31:04;;;;;;;12.68;4.15;;;1.00;99.90;;;;;;5038747;28;20076;-89
2024/01/21 00:33:30;;;;;;;13.63;4.20;;;1.00;99.90;;;;;;5016962;28;20069;-88
2024/01/21 00:35:55;;;;;;;6.45;2.60;;;1.10;99.90;;;;;;5049090;28;20087;-89
2024/01/21 00:38:21;;;;;;;9.60;3.90;;;1.10;99.90;;;;;;5014740;28;20028;-89
2024/01/21 00:40:47;;;;;;;11.32;3.92;;;1.10;99.90;;;;;;5014893;28;20033;-89
2024/01/21 00:43:12;;;;;;;8.27;3.33;;;1.10;99.90;;;;;;5031110;28;20075;-89
2024/01/21 00:45:38;;;;;;;11.05;4.00;;;1.10;99.90;;;;;;5031279;28;20044;-89
2024/01/21 00:48:04;;;;;;;8.93;3.72;;;1.20;99.90;;;;;;5029569;28;20044;-89
2024/01/21 00:50:30;;;;;;;9.50;3.67;;;1.20;99.90;;;;;;5030311;28;20037;-89
2024/01/21 00:52:56;;;;;;;7.38;2.65;;;1.20;99.90;;;;;;5014873;28;20381;-88
2024/01/21 00:55:21;;;;;;;8.63;3.20;;;1.20;99.90;;;;;;5014373;28;20033;-88
2024/01/21 00:57:48;;;;;;;9.38;3.22;;;1.20;99.90;;;;;;5030885;28;20033;-89
2024/01/21 01:00:14;;;;;;;9.18;2.95;;;1.20;99.90;;;;;;5014550;28;20044;-88
2024/01/21 01:02:40;;;;;;;10.65;3.63;;;1.30;99.90;;;;;;5030025;28;20068;-89
2024/01/21 01:05:06;;;;;;;7.10;2.95;;;1.30;99.90;;;;;;5030359;28;20060;-89
2024/01/21 01:07:31;;;;;;;9.05;2.90;;;1.30;99.90;;;;;;5014518;28;20044;-88
2024/01/21 01:09:58;;;;;;;8.98;3.67;;;1.30;99.90;;;;;;5030145;28;20036;-89
2024/01/21 01:12:24;;;;;;;7.72;3.35;;;1.30;99.90;;;;;;5014085;28;20041;-88
2024/01/21 01:14:50;;;;;;;5.47;2.30;;;1.40;99.90;;;;;;5030797;28;20029;-89
2024/01/21 01:17:15;;;;;;;8.23;3.17;;;1.40;99.90;;;;;;5013631;28;20395;-89
2024/01/21 01:19:41;;;;;;;4.05;2.42;;;1.40;99.90;;;;;;5013400;28;20148;-88
2024/01/21 01:22:07;;;;;;;11.20;3.33;;;1.40;99.90;;;;;;5013345;28;20029;-89
2024/01/21 01:24:32;;;;;;;6.05;2.30;;;1.40;99.90;;;;;;5013297;28;20044;-89
2024/01/21 01:26:58;;;;;;;8.15;2.83;;;1.40;99.90;;;;;;5012987;28;20037;-89
2024/01/21 01:29:24;;;;;;;6.00;2.08;;;1.40;99.90;;;;;;5047443;28;20036;-89
2024/01/21 01:31:49;;;;;;;7.53;2.47;;;1.40;99.90;;;;;;5029586;28;20468;-89
2024/01/21 01:34:15;;;;;;;7.35;2.47;;;1.40;99.90;;;;;;5029319;28;20037;-89
2024/01/21 01:36:40;;;;;;;6.93;2.50;;;1.40;99.90;;;;;;5013390;28;20044;-88
2024/01/21 01:39:09;;;;;;;7.20;2.65;;;1.50;99.90;;;;;;5030030;28;20064;-89
2024/01/21 01:41:34;;;;;;;6.70;2.40;;;1.50;99.90;;;;;;5030269;28;20044;-89
2024/01/21 01:44:00;;;;;;;4.38;1.70;;;1.50;99.90;;;;;;5030226;28;20037;-88
2024/01/21 01:46:25;;;;;;;5.15;1.95;;;1.50;99.90;;;;;;5030557;28;20041;-88
2024/01/21 01:48:51;;;;;;;5.38;1.98;;;1.50;99.90;;;;;;5013190;28;20033;-89
2024/01/21 01:51:17;;;;;;;6.80;2.30;;;1.50;99.90;;;;;;5014085;28;20036;-89
2024/01/21 01:53:43;;;;;;;6.75;2.20;;;1.50;99.90;;;;;;5013413;28;20116;-88
2024/01/21 01:56:09;;;;;;;6.75;2.75;;;1.50;99.90;;;;;;5029765;28;20037;-88
2024/01/21 01:58:37;;;;;;;6.10;2.58;;;1.50;99.90;;;;;;5013641;28;20037;-89
2024/01/21 02:01:03;;;;;;;5.40;1.98;;;1.60;99.90;;;;;;5030980;28;20033;-88
2024/01/21 02:03:29;;;;;;;7.72;2.00;;;1.60;99.90;;;;;;5013497;28;20033;-88
2024/01/21 02:05:54;;;;;;;7.32;2.40;;;1.60;99.90;;;;;;5029652;28;20025;-88
2024/01/21 02:08:20;;;;;;;6.80;2.33;;;1.60;99.90;;;;;;5030301;28;20036;-88
2024/01/21 02:10:46;;;;;;;7.63;2.08;;;1.60;99.90;;;;;;5029762;28;20447;-88
2024/01/21 02:13:12;;;;;;;4.95;1.85;;;1.70;99.90;;;;;;5013790;28;20076;-89
2024/01/21 02:15:37;;;;;;;5.63;2.10;;;1.70;99.90;;;;;;5012939;28;20033;-89
2024/01/21 02:18:03;;;;;;;4.45;1.55;;;1.70;99.90;;;;;;5032863;28;20048;-89
2024/01/21 02:20:29;;;;;;;6.75;2.00;;;1.70;99.90;;;;;;5017117;28;20467;-88
2024/01/21 02:22:58;;;;;;;4.45;1.42;;;1.80;99.90;;;;;;5033721;28;20531;-89
2024/01/21 02:25:23;;;;;;;7.22;2.30;;;1.80;99.90;;;;;;5033675;28;20043;-89
2024/01/21 02:27:49;;;;;;;5.35;1.85;;;1.80;99.90;;;;;;5033299;28;20120;-89
2024/01/21 02:30:15;;;;;;;7.28;1.85;;;1.80;99.90;;;;;;5017160;28;20056;-89
2024/01/21 02:32:40;;;;;;;4.43;1.58;;;1.80;99.90;;;;;;5017524;28;20372;-89
2024/01/21 02:35:06;;;;;;;5.25;1.65;;;1.80;99.30;;;;;;5017048;28;20471;-89
2024/01/21 02:37:32;;;;;;;5.38;1.98;;;1.80;99.80;;;;;;5017256;28;20037;-88
2024/01/21 02:39:57;;;;;;;6.43;1.80;;;1.80;99.40;;;;;;5017026;28;20062;-89
2024/01/21 02:42:25;;;;;;;4.50;1.58;;;1.80;98.40;;;;;;5017395;28;20488;-88
2024/01/21 02:44:52;;;;;;;6.40;2.00;;;1.80;99.00;;;;;;5033426;28;20041;-88
2024/01/21 02:47:17;;;;;;;7.13;1.92;;;1.80;97.70;;;;;;5034201;28;20079;-88
2024/01/21 02:49:43;;;;;;;3.97;1.45;;;1.80;99.50;;;;;;5034172;28;20072;-88
2024/01/21 02:52:09;;;;;;;4.97;1.85;;;1.90;98.70;;;;;;5035038;28;20082;-88
2024/01/21 02:54:35;;;;;;;4.60;1.73;;;1.90;98.40;;;;;;5033799;28;20083;-88
2024/01/21 02:57:00;;;;;;;5.70;1.83;;;1.90;96.90;;;;;;5016956;28;20033;-89
2024/01/21 02:59:26;;;;;;;7.78;1.60;;;1.90;95.40;;;;;;5016335;28;20090;-88
2024/01/21 03:01:51;;;;;;;3.10;1.38;;;1.90;96.50;;;;;;5017265;28;20037;-89
2024/01/21 03:04:17;;;;;;;4.15;1.52;;;1.90;95.20;;;;;;5033199;28;20072;-89
2024/01/21 03:06:44;;;;;;;5.10;1.48;;;1.90;95.50;;;;;;5016661;28;20033;-89
2024/01/21 03:09:09;;;;;;;5.50;1.77;;;1.90;93.70;;;;;;5032876;28;20044;-89
2024/01/21 03:11:37;;;;;;;4.80;1.27;;;1.90;94.20;;;;;;5016316;28;20029;-89
2024/01/21 03:14:02;;;;;;;4.53;1.33;;;1.90;94.40;;;;;;5032676;28;20045;-88
2024/01/21 03:16:28;;;;;;;3.70;1.40;;;1.90;90.90;;;;;;5016359;28;20037;-88
2024/01/21 03:18:54;;;;;;;4.72;1.40;;;1.90;90.60;;;;;;5032220;28;20037;-89
2024/01/21 03:21:19;;;;;;;3.72;1.40;;;1.90;91.60;;;;;;5016121;28;20088;-88
2024/01/21 03:23:45;;;;;;;5.32;1.52;;;2.00;92.10;;;;;;5016212;28;20112;-88
2024/01/21 03:26:11;;;;;;;4.57;1.67;;;1.90;92.00;;;;;;5025635;28;20048;-88
2024/01/21 03:28:36;;;;;;;5.43;1.67;;;2.00;86.50;;;;;;5048636;28;20048;-89
2024/01/21 03:31:02;;;;;;;6.50;2.03;;;2.00;91.00;;;;;;5021178;28;20373;-88
2024/01/21 03:33:27;;;;;;;4.07;1.27;;;2.00;90.80;;;;;;5036170;28;20140;-89
2024/01/21 03:35:53;;;;;;;5.25;1.65;;;2.00;91.40;;;;;;5053621;28;20408;-89
2024/01/21 03:38:19;;;;;;;5.30;1.38;;;2.00;91.40;;;;;;5052894;28;20052;-88
2024/01/21 03:40:44;;;;;;;7.13;2.03;;;2.00;91.10;;;;;;5034412;28;20040;-88
2024/01/21 03:43:10;;;;;;;6.60;1.80;;;2.10;88.80;;;;;;5017535;28;20407;-89
2024/01/21 03:45:35;;;;;;;3.67;1.30;;;2.10;89.40;;;;;;5051043;28;20048;-88
2024/01/21 03:48:01;;;;;;;4.28;1.33;;;2.10;87.40;;;;;;5032972;28;20029;-88
2024/01/21 03:50:27;;;;;;;5.57;1.48;;;2.10;87.10;;;;;;5016050;28;20370;-88
2024/01/21 03:52:52;;;;;;;3.17;1.23;;;2.10;85.50;;;;;;5032820;28;20107;-88
2024/01/21 03:55:19;;;;;;;2.78;1.08;;;2.20;83.50;;;;;;5032409;28;20067;-88
2024/01/21 03:57:45;;;;;;;5.07;1.80;;;2.10;83.30;;;;;;5015009;28;20409;-89
2024/01/21 04:00:12;;;;;;;3.60;1.73;;;2.10;80.20;;;;;;5032182;28;20041;-88
2024/01/21 04:02:39;;;;;;;4.25;1.42;;;2.20;80.90;;;;;;5032325;28;20043;-89
2024/01/21 04:05:05;;;;;;;4.13;1.20;;;2.10;82.00;;;;;;5032187;28;20033;-89
2024/01/21 04:07:31;;;;;;;2.65;1.02;;;2.20;80.70;;;;;;5015469;28;20040;-89
2024/01/21 04:09:56;;;;;;;4.50;1.23;;;2.20;81.70;;;;;;5015230;28;20029;-89
2024/01/21 04:12:22;;;;;;;3.40;1.13;;;2.20;82.10;;;;;;5015319;28;20033;-88
2024/01/21 04:14:48;;;;;;;5.07;1.50;;;2.30;82.00;;;;;;5015244;28;20539;-88
2024/01/21 04:17:13;;;;;;;4.68;1.58;;;2.30;83.20;;;;;;5015647;28;20045;-89
2024/01/21 04:19:39;;;;;;;3.60;1.20;;;2.30;80.40;;;;;;5015101;28;20471;-88
2024/01/21 04:22:05;;;;;;;2.10;1.00;;;2.30;77.90;;;;;;5015285;28;20099;-88
2024/01/21 04:24:30;;;;;;;2.17;1.05;;;2.30;76.50;;;;;;5031793;28;20484;-88
2024/01/21 04:26:56;;;;;;;3.75;1.10;;;2.40;75.50;;;;;;5014979;28;20116;-89
2024/01/21 04:29:22;;;;;;;4.75;1.25;;;2.40;77.20;;;;;;5031763;28;20132;-88
2024/01/21 04:31:47;;;;;;;4.00;1.45;;;2.40;78.50;;;;;;5014739;28;20079;-88
2024/01/21 04:34:13;;;;;;;5.45;1.30;;;2.40;77.00;;;;;;5031105;28;20043;-89
2024/01/21 04:36:39;;;;;;;2.28;0.93;;;2.40;79.60;;;;;;5031621;28;20128;-88
2024/01/21 04:39:08;;;;;;;3.03;1.00;;;2.50;79.70;;;;;;5031321;28;20082;-88
2024/01/21 04:41:34;;;;;;;16.42;1.17;;;2.50;77.40;;;;;;5014532;28;20037;-89
2024/01/21 04:43:59;;;;;;;3.67;1.05;;;2.50;77.90;;;;;;5014655;28;20132;-89
2024/01/21 04:46:25;;;;;;;1.80;0.88;;;2.50;74.50;;;;;;5014584;28;20496;-89
2024/01/21 04:48:51;;;;;;;5.90;1.45;;;2.50;75.00;;;;;;5031407;28;20108;-88
2024/01/21 04:51:17;;;;;;;4.53;1.15;;;2.50;76.00;;;;;;5014473;28;20467;-89
2024/01/21 04:53:43;;;;;;;3.08;1.02;;;2.60;74.90;;;;;;5048489;28;20461;-88
2024/01/21 04:56:15;;;;;;;2.78;0.82;;;2.50;73.40;;;;;;5014395;28;20071;-88
2024/01/21 04:58:41;;;;;;;4.28;1.05;;;2.60;73.80;;;;;;5014418;28;20084;-89
2024/01/21 05:01:06;;;;;;;2.10;0.70;;;2.60;75.00;;;;;;5030964;28;20516;-88
2024/01/21 05:03:32;;;;;;;3.65;1.15;;;2.50;74.70;;;;;;5014694;28;20074;-89
2024/01/21 05:05:57;;;;;;;4.05;1.27;;;2.50;75.50;;;;;;5014983;28;20037;-89
2024/01/21 05:08:23;;;;;;;4.60;1.23;;;2.50;77.20;;;;;;5049455;28;20484;-89
2024/01/21 05:10:49;;;;;;;3.97;1.23;;;2.50;76.20;;;;;;5031573;28;20115;-89
2024/01/21 05:13:14;;;;;;;4.05;1.30;;;2.50;76.80;;;;;;5017026;28;20047;-89
2024/01/21 05:15:40;;;;;;;6.20;1.58;;;2.50;76.70;;;;;;5049888;28;20496;-88
2024/01/21 05:18:06;;;;;;;4.07;1.20;;;2.50;77.60;;;;;;5014399;28;20403;-88
2024/01/21 05:20:31;;;;;;;2.25;1.00;;;2.40;78.30;;;;;;5048310;28;20409;-88
2024/01/21 05:22:59;;;;;;;4.88;1.33;;;2.40;78.30;;;;;;5030441;28;20032;-88
2024/01/21 05:25:25;;;;;;;3.60;1.42;;;2.40;78.50;;;;;;5013964;28;20037;-88
2024/01/21 05:27:50;;;;;;;3.60;1.15;;;2.40;77.80;;;;;;5014354;28;20041;-89
2024/01/21 05:30:16;;;;;;;6.10;1.55;;;2.40;75.20;;;;;;5014056;28;20033;-89
2024/01/21 05:32:46;;;;;;;4.95;1.85;;;2.50;75.20;;;;;;5014050;28;20065;-88
2024/01/21 05:35:12;;;;;;;4.93;1.45;;;2.50;75.40;;;;;;5028541;28;20095;-88
2024/01/21 05:37:38;;;;;;;4.72;1.40;;;2.50;76.20;;;;;;5030229;28;20033;-89
2024/01/21 05:40:04;;;;;;;4.03;1.35;;;2.50;75.10;;;;;;5013879;28;20035;-89
2024/01/21 05:42:30;;;;;;;6.47;1.30;;;2.50;74.30;;;;;;5013120;28;20048;-88
2024/01/21 05:44:56;;;;;;;4.03;1.35;;;2.50;74.90;;;;;;5030219;28;20619;-89
2024/01/21 05:47:21;;;;;;;5.47;1.85;;;2.50;75.30;;;;;;5030337;28;20033;-89
2024/01/21 05:49:47;;;;;;;4.32;1.55;;;2.50;74.40;;;;;;5029824;28;20029;-89
2024/01/21 05:52:12;;;;;;;4.80;1.65;;;2.50;73.10;;;;;;5031516;28;20072;-89
2024/01/21 05:54:39;;;;;;;3.92;1.30;;;2.60;72.70;;;;;;5034697;28;20461;-89
2024/01/21 05:57:05;;;;;;;3.50;1.40;;;2.60;73.00;;;;;;5016224;28;20037;-89
2024/01/21 05:59:32;;;;;;;4.35;1.95;;;2.60;73.40;;;;;;5034299;28;20492;-88
2024/01/21 06:01:58;;;;;;;10.80;1.88;;;2.60;73.60;;;;;;5033685;28;20049;-88
2024/01/21 06:04:24;;;;;;;5.55;1.77;;;2.60;74.40;;;;;;5034147;28;20112;-89
2024/01/21 06:06:49;;;;;;;3.85;1.65;;;2.70;74.10;;;;;;5017568;28;20123;-89
2024/01/21 06:09:15;;;;;;;5.82;1.92;;;2.70;70.80;;;;;;5018124;28;20033;-89
2024/01/21 06:11:41;;;;;;;6.03;1.77;;;2.70;70.40;;;;;;5016391;28;20049;-88
2024/01/21 06:14:07;;;;;;;2.53;1.05;;;2.80;70.40;;;;;;5034079;28;20029;-89
2024/01/21 06:16:33;;;;;;;3.42;1.60;;;2.80;70.30;;;;;;5034331;28;20091;-89
2024/01/21 06:18:59;;;;;;;5.65;2.35;;;2.80;69.90;;;;;;5033892;28;20049;-89
2024/01/21 06:21:24;;;;;;;5.68;1.50;;;2.80;71.10;;;;;;5051544;28;20037;-89
2024/01/21 06:23:50;;;;;;;2.65;1.13;;;2.80;70.70;;;;;;5051973;28;20033;-89
2024/01/21 06:26:20;;;;;;;5.30;1.73;;;2.80;69.60;;;;;;5034133;28;20028;-89
2024/01/21 06:28:46;;;;;;;6.47;1.85;;;2.80;70.30;;;;;;5016919;28;20037;-89
2024/01/21 06:31:13;;;;;;;7.07;2.15;;;2.80;69.70;;;;;;5034078;28;20029;-89
2024/01/21 06:33:38;;;;;;;5.03;1.70;;;2.80;70.90;;;;;;5016870;28;20033;-89
2024/01/21 06:36:04;;;;;;;4.20;2.15;;;2.90;69.60;;;;;;5032827;28;20044;-89
2024/01/21 06:38:30;;;;;;;9.02;2.47;;;2.90;69.20;;;;;;5016790;28;20048;-88
2024/01/21 06:40:56;;;;;;;5.47;1.92;;;2.90;69.00;;;;;;5016410;28;20480;-88
2024/01/21 06:43:22;;;;;;;4.63;1.92;;;2.90;69.40;;;;;;5016666;28;20415;-88
2024/01/21 06:45:47;;;;;;;4.65;1.75;;;2.90;69.00;;;;;;5016513;28;20128;-88
2024/01/21 06:48:13;;;;;;;5.05;1.52;;;3.00;70.40;;;;;;5050794;28;20033;-89
2024/01/21 06:50:38;;;;;;;7.82;2.30;;;2.90;70.20;;;;;;5016773;28;20290;-88
2024/01/21 06:53:04;;;;;;;5.95;2.10;;;2.90;70.80;;;;;;5032968;28;20492;-89
2024/01/21 06:55:30;;;;;;;7.45;2.15;;;2.90;69.40;;;;;;5016624;28;20080;-89
2024/01/21 06:57:55;;;;;;;5.07;1.80;;;2.90;69.00;;;;;;5033583;28;20488;-89
2024/01/21 07:00:21;;;;;;;4.30;1.67;;;2.90;70.30;;;;;;5050517;28;20060;-88
2024/01/21 07:02:47;;;;;;;5.75;2.53;;;2.90;69.40;;;;;;5015653;28;20511;-89
2024/01/21 07:05:12;;;;;;;6.28;2.45;;;2.90;69.90;;;;;;5032742;28;20033;-89
2024/01/21 07:07:38;;;;;;;9.63;3.30;;;2.90;70.30;;;;;;5016454;28;20041;-89
2024/01/21 07:10:04;;;;;;;10.18;3.78;;;2.90;70.70;;;;;;5015734;28;20064;-89
2024/01/21 07:12:30;;;;;;;4.70;1.88;;;2.80;70.90;;;;;;5016067;28;20563;-89
2024/01/21 07:14:56;;;;;;;7.07;2.10;;;2.80;70.90;;;;;;5016377;28;20041;-89
2024/01/21 07:17:21;;;;;;;4.93;2.42;;;2.80;71.00;;;;;;5016386;28;20048;-89
2024/01/21 07:19:52;;;;;;;7.18;2.60;;;2.80;71.80;;;;;;5032497;28;20037;-89
2024/01/21 07:22:18;;;;;;;5.72;2.78;;;2.70;72.10;;;;;;5033223;28;20681;-90
2024/01/21 07:24:44;;;;;;;7.60;2.83;;;2.70;71.60;;;;;;5020363;28;20163;-88
2024/01/21 07:27:10;;;;;;;9.35;2.75;;;2.70;71.80;;;;;;5051003;28;20116;-89
2024/01/21 07:29:35;;;;;;;10.55;3.60;;;2.70;73.40;;;;;;5035619;28;20032;-88
2024/01/21 07:32:01;;;;;;;9.02;3.22;;;2.60;74.00;;;;;;5053781;28;20124;-90
2024/01/21 07:34:27;;;;;;;7.32;2.63;;;2.60;74.30;;;;;;5032580;28;20087;-90
2024/01/21 07:36:53;;;;;;;9.32;3.05;;;2.60;73.80;;;;;;5036277;28;21451;-90
2024/01/21 07:39:19;;;;;;;7.60;2.40;;;2.60;73.30;;;;;;5018158;28;20037;-90
2024/01/21 07:41:44;;;;;;;11.23;3.30;;;2.60;73.90;;;;;;5050767;28;20041;-89
2024/01/21 07:44:10;;;;;;;6.82;2.55;;;2.60;74.40;;;;;;5016209;28;20033;-89
2024/01/21 07:46:36;;;;;;;6.57;2.78;;;2.50;74.30;;;;;;5016635;28;20102;-89
2024/01/21 07:49:02;;;;;;;8.52;2.95;;;2.50;74.50;;;;;;5032870;28;20064;-89
2024/01/21 07:51:27;;;;;;;8.05;3.28;;;2.50;75.30;;;;;;5050785;28;20033;-89
2024/01/21 07:53:53;;;;;;;7.75;2.88;;;2.50;76.20;;;;;;5054060;28;20121;-89
2024/01/21 07:56:19;;;;;;;5.65;2.33;;;2.50;76.10;;;;;;5021064;28;20423;-89
2024/01/21 07:58:44;;;;;;;9.85;2.75;;;2.50;75.80;;;;;;5019943;28;20037;-89
2024/01/21 08:01:11;;;;;;;5.70;3.03;;;2.50;76.00;;;;;;5015985;28;20446;-89
2024/01/21 08:03:37;;;;;;;9.40;3.35;;;2.50;76.30;;;;;;5054502;28;20559;-88
2024/01/21 08:06:05;;;;;;;6.10;1.98;;;2.50;76.40;;;;;;5017860;28;20041;-88
2024/01/21 08:08:31;;;;;;;10.90;3.70;;;2.50;76.90;;;;;;5030678;28;20020;-88
2024/01/21 08:10:56;;;;;;;5.45;1.95;;;2.50;76.20;;;;;;5015393;28;20423;-88
2024/01/21 08:13:22;;;;;;;8.75;2.90;;;2.50;76.50;;;;;;5032221;28;20407;-89
2024/01/21 08:15:48;;;;;;;5.13;1.95;;;2.50;76.60;;;;;;5014590;28;20043;-90
2024/01/21 08:18:16;;;;;;;8.07;3.67;;;2.50;77.60;;;;;;5050022;28;20029;-89
2024/01/21 08:20:42;;;;;;;8.25;2.15;;;2.60;78.10;;;;;;5016261;28;20041;-89
2024/01/21 08:23:07;;;;;;;8.70;3.85;;;2.60;77.20;;;;;;5031530;28;20075;-88
2024/01/21 08:25:33;;;;;;;7.03;2.60;;;2.60;78.00;;;;;;5049580;28;20036;-89
2024/01/21 08:27:59;;;;;;;9.23;2.55;;;2.60;78.20;;;;;;5031976;28;20044;-89
2024/01/21 08:30:24;;;;;;;5.07;1.95;;;2.60;79.50;;;;;;5017114;28;20697;-89
2024/01/21 08:32:50;;;;;;;7.25;2.55;;;2.60;78.80;;;;;;5031606;28;20029;-89
2024/01/21 08:35:17;;;;;;;5.18;2.30;;;2.60;78.00;;;;;;5031042;28;20037;-89
2024/01/21 08:37:43;;;;;;;8.30;2.92;;;2.60;79.20;;;;;;5015297;28;20037;-88
2024/01/21 08:40:09;;;;;;;8.50;2.80;;;2.70;78.70;;;;;;5031766;28;20098;-89
2024/01/21 08:42:35;;;;;;;7.68;2.92;;;2.70;78.30;;;;;;5014560;28;20040;-88
2024/01/21 08:45:00;;;;;;;8.00;2.90;;;2.70;79.30;;;;;;5032685;28;20033;-89
2024/01/21 08:47:26;;;;;;;7.07;2.75;;;2.80;78.00;;;;;;5015173;28;20377;-89
2024/01/21 08:49:52;;;;;;;6.10;2.30;;;2.80;79.80;;;;;;5015402;28;20131;-89
2024/01/21 08:52:17;;;;;;;6.88;2.55;;;2.80;79.30;;;;;;5035369;28;20416;-89
2024/01/21 08:54:43;;;;;;;6.50;2.53;;;2.70;80.30;;;;;;5034521;28;20056;-89
2024/01/21 08:57:08;;;;;;;6.68;2.47;;;2.70;81.00;;;;;;5018480;28;20485;-90
2024/01/21 08:59:34;;;;;;;5.72;2.10;;;2.70;80.50;;;;;;5021108;28;20029;-90
2024/01/21 09:02:23;;;;;;;;;;;;;;;;;;;;;
2024/01/21 09:05:03;;;;;;;;;;;;;;;;;;;;;
2024/01/21 09:07:34;;;;;;;5.82;2.10;;;2.80;81.70;;;;;;5036134;28;20036;-91
2024/01/21 09:10:00;;;;;;;9.65;3.22;;;2.80;81.70;;;;;;5021564;28;20072;-90
2024/01/21 09:12:31;;;;;;;6.30;2.30;;;2.80;80.80;;;;;;5037053;28;20492;-89
2024/01/21 09:14:57;;;;;;;9.02;3.17;;;2.80;81.30;;;;;;5038204;28;20044;-89
2024/01/21 09:17:33;;;;;;;5.22;1.83;;;2.90;82.40;;;;;;5036552;28;20045;-89
2024/01/21 09:20:04;;;;;;;5.70;2.38;;;2.90;82.30;;;;;;5054625;28;20037;-88
2024/01/21 09:22:33;;;;;;;4.53;1.73;;;2.90;82.00;;;;;;5019636;28;20037;-90
2024/01/21 09:25:35;;;;;;;7.10;2.70;;;3.00;82.50;;;;;;5057366;28;20687;-91
2024/01/21 09:28:27;;;;;;;7.15;2.75;;;3.00;81.40;;;;;;5015761;28;20561;-90
2024/01/21 09:30:53;;;;;;;6.97;3.10;;;3.00;81.60;;;;;;5018959;28;20104;-90
2024/01/21 09:33:24;;;;;;;7.28;2.63;;;3.00;83.70;;;;;;5055922;28;20474;-89
2024/01/21 09:36:11;;;;;;;9.23;2.65;;;3.00;82.60;;;;;;5037891;28;20064;-90
2024/01/21 09:39:05;;;;;;;7.93;2.47;;;3.00;84.80;;;;;;5036147;28;20505;-90
2024/01/21 09:41:40;;;;;;;7.20;2.45;;;2.90;86.40;;;;;;5021303;28;20059;-91
2024/01/21 09:44:22;;;;;;;;;;;;;;;;;;;;;
2024/01/21 09:46:57;;;;;;;12.20;3.73;;;2.90;90.20;;;;;;5037787;28;20040;-90
2024/01/21 09:49:33;;;;;;;8.10;3.08;;;2.90;90.10;;;;;;5017181;28;20087;-91
2024/01/21 09:52:09;;;;;;;10.02;3.13;;;2.90;90.00;;;;;;5037129;28;20495;-90
2024/01/21 09:54:56;;;;;;;8.60;3.33;;;3.00;88.60;;;;;;5022580;28;20048;-90
2024/01/21 09:57:40;;;;;;;7.63;2.75;;;3.00;90.40;;;;;;5019209;28;20048;-91
2024/01/21 10:00:14;;;;;;;5.75;2.70;;;3.10;89.00;;;;;;5037494;28;20086;-91
2024/01/21 10:02:50;;;;;;;8.43;2.83;;;3.10;90.70;;;;;;5033713;28;20111;-89
2024/01/21 10:05:16;;;;;;;8.23;3.28;;;3.10;91.00;;;;;;5044290;28;20041;-90
2024/01/21 10:07:52;;;;;;;9.35;3.05;;;3.10;91.50;;;;;;5043462;28;20041;-90
2024/01/21 10:10:45;;;;;;;5.53;2.40;;;3.20;91.50;;;;;;5017901;28;20052;-91
2024/01/21 10:13:21;;;;;;;7.72;2.70;;;3.20;91.90;;;;;;5032812;28;20040;-90
2024/01/21 10:16:03;;;;;;;6.35;2.40;;;3.30;91.90;;;;;;5033782;28;20044;-90
2024/01/21 10:18:35;;;;;;;7.70;3.05;;;3.30;92.80;;;;;;5020702;28;20037;-91
2024/01/21 10:21:09;;;;;;;6.93;2.60;;;3.30;93.10;;;;;;5036939;28;20119;-91
2024/01/21 10:23:38;;;;;;;8.75;3.03;;;3.40;93.70;;;;;;5051243;28;20408;-91
2024/01/21 10:26:09;;;;;;;6.32;2.63;;;3.40;93.50;;;;;;5021822;28;20033;-91
2024/01/21 10:28:41;;;;;;;8.77;3.30;;;3.40;93.70;;;;;;5018599;28;20519;-91
2024/01/21 10:31:08;;;;;;;9.65;3.22;;;3.50;94.40;;;;;;5052246;28;20120;-90
2024/01/21 10:33:34;;;;;;;8.10;2.47;;;3.50;94.90;;;;;;5053287;28;20192;-91
2024/01/21 10:36:03;;;;;;;8.35;2.80;;;3.60;95.90;;;;;;5017644;28;20127;-91
2024/01/21 10:38:33;;;;;;;7.82;3.20;;;3.60;95.60;;;;;;5050129;28;20052;-91
2024/01/21 10:41:00;;;;;;;7.90;2.88;;;3.60;95.40;;;;;;5017733;28;20049;-92
2024/01/21 10:43:29;;;;;;;9.20;3.17;;;3.60;95.50;;;;;;5034783;28;20155;-90
2024/01/21 10:45:56;;;;;;;11.52;3.15;;;3.70;96.40;;;;;;5035965;28;20538;-90
2024/01/21 10:48:22;;;;;;;7.18;3.00;;;3.60;96.90;;;;;;5051710;28;20707;-90
2024/01/21 10:50:51;;;;;;;8.32;2.65;;;3.60;97.50;;;;;;5016720;28;20108;-90
2024/01/21 10:53:17;;;;;;;7.15;2.75;;;3.70;98.20;;;;;;5051577;28;20037;-91
2024/01/21 10:55:44;;;;;;;6.15;2.92;;;3.70;98.80;;;;;;5033651;28;20075;-91
2024/01/21 10:58:10;;;;;;;5.88;2.03;;;3.70;99.60;;;;;;5017256;28;20037;-92
2024/01/21 11:00:37;;;;;;;8.93;3.28;;;3.80;99.90;;;;;;5033637;28;20044;-90
2024/01/21 11:03:25;;;;;;;4.18;1.38;;;3.80;99.90;;;;;;5051336;28;20065;-91
2024/01/21 11:06:03;;;;;;;7.75;2.92;;;3.90;99.90;;;;;;5017070;28;20064;-92
2024/01/21 11:08:29;;;;;;;7.72;2.47;;;3.90;99.90;;;;;;5019761;28;20033;-92
2024/01/21 11:11:22;;;;;;;7.30;2.92;;;3.90;99.90;;;;;;5033125;28;20041;-91
2024/01/21 11:13:49;;;;;;;9.95;2.47;;;3.90;99.90;;;;;;5015085;28;20052;-91
2024/01/21 11:16:30;;;;;;;8.18;2.63;;;3.90;99.90;;;;;;5017726;28;20040;-90
2024/01/21 11:19:10;;;;;;;5.70;2.45;;;3.90;99.90;;;;;;5018065;28;20126;-91
2024/01/21 11:21:42;;;;;;;4.25;1.85;;;3.90;99.90;;;;;;5017326;28;20040;-91
2024/01/21 11:24:13;;;;;;;9.80;2.60;;;3.90;99.90;;;;;;5017290;28;20037;-91
2024/01/21 11:26:41;;;;;;;7.18;2.97;;;3.90;99.90;;;;;;5015832;28;20083;-91
2024/01/21 11:29:25;;;;;;;8.43;3.08;;;3.90;99.90;;;;;;5015933;28;20118;-91
2024/01/21 11:31:52;;;;;;;8.82;2.85;;;3.90;99.90;;;;;;5032654;28;20033;-90
2024/01/21 11:34:18;;;;;;;6.13;2.55;;;3.80;99.90;;;;;;5016005;28;20033;-90
2024/01/21 11:36:45;;;;;;;7.38;2.80;;;3.70;99.90;;;;;;5016621;28;20412;-90
2024/01/21 11:39:11;;;;;;;7.45;2.97;;;3.70;99.90;;;;;;5014219;28;20045;-90
2024/01/21 11:41:41;;;;;;;7.78;3.15;;;3.60;99.90;;;;;;5018303;28;20033;-90
2024/01/21 11:44:27;;;;;;;7.68;2.45;;;3.60;99.90;;;;;;5015697;28;20037;-90
2024/01/21 11:46:55;;;;;;;6.05;2.22;;;3.60;99.90;;;;;;5015679;28;20104;-90
2024/01/21 11:49:21;;;;;;;6.63;2.47;;;3.60;99.90;;;;;;5031418;28;20084;-90
2024/01/21 11:51:47;;;;;;;4.10;1.83;;;3.60;99.90;;;;;;5032470;28;20508;-90
2024/01/21 11:54:14;;;;;;;9.75;4.40;;;3.60;99.90;;;;;;5015495;28;20029;-89
2024/01/21 11:56:40;;;;;;;5.80;2.30;;;3.60;99.90;;;;;;5015690;28;20024;-90
2024/01/21 11:59:08;;;;;;;8.35;2.83;;;3.60;99.90;;;;;;5015521;28;20052;-91
2024/01/21 12:01:36;;;;;;;7.30;2.65;;;3.60;99.90;;;;;;5017373;28;20051;-90
2024/01/21 12:04:06;;;;;;;10.02;3.75;;;3.60;99.90;;;;;;5032009;28;20119;-90
2024/01/21 12:06:44;;;;;;;7.95;3.47;;;3.60;99.90;;;;;;5016941;28;20029;-91
2024/01/21 12:09:11;;;;;;;8.43;3.40;;;3.70;99.90;;;;;;5049954;28;20037;-90
2024/01/21 12:11:47;;;;;;;6.45;3.00;;;3.70;99.90;;;;;;5013233;28;20040;-91
2024/01/21 12:14:13;;;;;;;5.63;2.40;;;3.80;99.90;;;;;;5010693;28;20037;-91
2024/01/21 12:16:42;;;;;;;8.50;3.50;;;3.80;99.90;;;;;;5029593;28;20112;-91
2024/01/21 12:19:10;;;;;;;7.90;2.83;;;3.80;99.90;;;;;;5011511;28;20056;-91
2024/01/21 12:21:35;;;;;;;7.15;2.28;;;3.90;99.90;;;;;;5031483;28;20588;-91
2024/01/21 12:24:04;;;;;;;3.28;1.42;;;3.90;99.90;;;;;;5030351;28;20072;-90
2024/01/21 12:26:30;;;;;;;8.27;3.42;;;3.90;99.90;;;;;;5012666;28;20029;-91
2024/01/21 12:29:00;;;;;;;8.75;3.65;;;3.90;99.90;;;;;;5014559;28;20116;-91
2024/01/21 12:31:33;;;;;;;12.05;3.55;;;4.00;99.90;;;;;;5028168;28;20037;-91
2024/01/21 12:34:06;;;;;;;8.00;3.53;;;4.00;99.90;;;;;;5047661;28;20098;-91
2024/01/21 12:36:33;;;;;;;;;;;4.00;99.90;;;;;;5031292;28;20044;-91
2024/01/21 12:38:59;;;;;;;9.30;3.40;;;4.00;99.90;;;;;;5015208;28;19932;-90
2024/01/21 12:41:25;;;;;;;8.45;2.55;;;4.10;99.90;;;;;;5014487;28;20527;-91
2024/01/21 12:43:50;;;;;;;8.63;2.53;;;4.10;99.90;;;;;;5030140;28;20033;-91
2024/01/21 12:46:18;;;;;;;9.98;3.38;;;4.10;99.90;;;;;;5013705;28;20033;-90
2024/01/21 12:48:45;;;;;;;7.25;2.63;;;4.20;99.90;;;;;;5030846;28;20047;-91
2024/01/21 12:51:10;;;;;;;9.18;3.33;;;4.20;99.90;;;;;;5011565;28;20045;-88
2024/01/21 12:53:36;;;;;;;7.28;2.90;;;4.20;99.90;;;;;;5030466;28;20055;-90
2024/01/21 12:56:02;;;;;;;7.95;3.33;;;4.20;99.90;;;;;;5031172;28;20114;-88
2024/01/21 12:58:28;;;;;;;8.80;3.47;;;4.20;99.90;;;;;;5030566;28;20037;-89
2024/01/21 13:00:54;;;;;;;7.55;2.80;;;4.30;99.90;;;;;;5014030;28;20041;-91
2024/01/21 13:03:19;;;;;;;6.22;2.92;;;4.30;99.90;;;;;;5047449;28;20045;-90